Norfolk, Virginia
Traffic Map
Current Weather Conditions
Norfolk, Virginia
Overcast Haze
Overcast
49°
Feels Like: 45°
Wind Chill: 45° Ceiling: 200
Heat Index: 49° Visibility: 0.75mi
Dew Point: 48° Wind: 9mph
Humidity: 97% Direction: 20° (NNE)
Pressure: 29.57in Gusts: 0mph
Raw Report DataKORF 222151Z 02008KT 3/4SM R05/5500VP6000FT BR BKN002 OVC008 09/09 A2957 RMK AO2 SLP011 T00940089
Traffic Incident Summary
Active as of:
Severity:
Category:
InformationThere was an issue retrieving the traffic information for this location. Please try a different location or try again shortly.
Advertisements
Track Severe Weather on mobile